Wetterdaten: aktuell Montag, 26.06.2017 13:50
Datum Zeit Luft-Temp. Wasser Feuchte A. Luftdruck Regen Wind Richtung Richtung Windben
26.06.2017 13:50 26.2 C 25.6 C 56 % 1009.7 hPa 0.0 l/m 9.4 km/h (2 Bft) W-NW 292 11.6 km/h (2 Bft)
26.06.2017 12:50 25.2 C 25.6 C 56 % 1010.5 hPa 0.0 l/m 5.4 km/h (2 Bft) W-NW 283 7.2 km/h (2 Bft)
26.06.2017 11:50 23.7 C 25.6 C 66 % 1011.5 hPa 0.0 l/m 4.9 km/h (1 Bft) W-NW 283 7.2 km/h (2 Bft)
26.06.2017 10:50 22.4 C 25.0 C 70 % 1012.0 hPa 0.0 l/m 0.0 km/h (0 Bft) W-NW 283 0.0 km/h (0 Bft)
26.06.2017 09:50 21.4 C 25.0 C 76 % 1012.2 hPa 0.0 l/m 6.0 km/h (2 Bft) S 175 8.7 km/h (2 Bft)
26.06.2017 08:50 20.1 C 25.0 C 80 % 1012.7 hPa 0.0 l/m 4.6 km/h (1 Bft) S-SO 154 7.2 km/h (2 Bft)
26.06.2017 07:50 18.2 C 25.0 C 87 % 1013.4 hPa 0.0 l/m 5.1 km/h (1 Bft) SO 145 10.1 km/h (2 Bft)
26.06.2017 06:50 15.8 C 25.0 C 92 % 1013.6 hPa 0.0 l/m 0.1 km/h (0 Bft) S-SO 155 1.4 km/h (1 Bft)
26.06.2017 05:50 15.6 C 25.0 C 92 % 1013.7 hPa 0.0 l/m 0.3 km/h (0 Bft) S-SO 155 2.9 km/h (1 Bft)
26.06.2017 05:24 15.8 C 25.0 C 91 % 1015.7 hPa 0.0 l/m 0.0 km/h (0 Bft) S 180 0.0 km/h (0 Bft)
26.06.2017 05:12 15.6 C 25.0 C 91 % 1015.9 hPa 0.0 l/m 0.0 km/h (0 Bft) S 180 0.0 km/h (0 Bft)
26.06.2017 05:00 15.8 C 25.0 C 90 % 1015.9 hPa 0.0 l/m 0.0 km/h (0 Bft) S 180 0.0 km/h (0 Bft)
26.06.2017 04:48 16.2 C 25.0 C 91 % 1015.9 hPa 0.0 l/m 0.0 km/h (0 Bft) S 180 0.0 km/h (0 Bft)
26.06.2017 04:36 16.9 C 25.0 C 89 % 1015.9 hPa 0.0 l/m 0.0 km/h (0 Bft) S-SO 157 3.2 km/h (1 Bft)
26.06.2017 04:24 17.2 C 25.0 C 88 % 1016.1 hPa 0.0 l/m 0.0 km/h (0 Bft) S 180 0.0 km/h (0 Bft)
26.06.2017 04:12 17.3 C 25.0 C 88 % 1016.2 hPa 0.0 l/m 0.0 km/h (0 Bft) S 180 0.0 km/h (0 Bft)
26.06.2017 04:00 17.3 C 25.0 C 87 % 1016.3 hPa 0.0 l/m 0.0 km/h (0 Bft) S 180 0.0 km/h (0 Bft)
26.06.2017 03:48 17.1 C 25.0 C 88 % 1016.2 hPa 0.0 l/m 0.0 km/h (0 Bft) S 180 0.0 km/h (0 Bft)
26.06.2017 03:36 17.3 C 25.0 C 87 % 1016.3 hPa 0.0 l/m 0.0 km/h (0 Bft) S 180 0.0 km/h (0 Bft)
26.06.2017 03:24 17.6 C 25.0 C 85 % 1016.3 hPa 0.0 l/m 0.0 km/h (0 Bft) S 180 0.0 km/h (0 Bft)
26.06.2017 03:12 17.9 C 25.0 C 85 % 1016.4 hPa 0.0 l/m 0.0 km/h (0 Bft) S 180 0.0 km/h (0 Bft)
26.06.2017 03:00 18.4 C 25.0 C 86 % 1016.4 hPa 0.0 l/m 0.0 km/h (0 Bft) S 180 0.0 km/h (0 Bft)
26.06.2017 02:48 17.9 C 25.6 C 84 % 1016.5 hPa 0.0 l/m 0.0 km/h (0 Bft) S 180 0.0 km/h (0 Bft)
26.06.2017 02:36 17.8 C 25.6 C 84 % 1016.6 hPa 0.0 l/m 0.0 km/h (0 Bft) S 180 0.0 km/h (0 Bft)
26.06.2017 02:24 18.1 C 25.6 C 83 % 1016.5 hPa 0.0 l/m 0.0 km/h (0 Bft) S 180 0.0 km/h (0 Bft)
26.06.2017 02:12 18.7 C 25.6 C 82 % 1016.5 hPa 0.0 l/m 4.3 km/h (1 Bft) S-SO 157 6.4 km/h (2 Bft)
26.06.2017 02:00 18.8 C 25.6 C 82 % 1016.5 hPa 0.0 l/m 0.0 km/h (0 Bft) S 180 0.0 km/h (0 Bft)
26.06.2017 01:48 18.9 C 25.6 C 82 % 1016.4 hPa 0.0 l/m 0.0 km/h (0 Bft) S 180 0.0 km/h (0 Bft)
26.06.2017 01:36 19.3 C 25.6 C 80 % 1016.5 hPa 0.0 l/m 4.3 km/h (1 Bft) S-SO 157 6.4 km/h (2 Bft)
26.06.2017 01:24 18.9 C 25.6 C 82 % 1016.5 hPa 0.0 l/m 2.9 km/h (1 Bft) S-SO 157 4.8 km/h (1 Bft)
26.06.2017 01:12 18.8 C 25.6 C 84 % 1016.5 hPa 0.0 l/m 0.0 km/h (0 Bft) S 180 0.0 km/h (0 Bft)
26.06.2017 01:00 19.1 C 25.6 C 82 % 1016.5 hPa 0.0 l/m 2.9 km/h (1 Bft) S-SO 157 3.2 km/h (1 Bft)
26.06.2017 00:48 19.2 C 25.6 C 82 % 1016.6 hPa 0.0 l/m 2.9 km/h (1 Bft) S 180 4.8 km/h (1 Bft)
26.06.2017 00:36 18.9 C 25.6 C 79 % 1016.6 hPa 0.0 l/m 1.4 km/h (1 Bft) S 180 3.2 km/h (1 Bft)
26.06.2017 00:24 19.1 C 25.6 C 78 % 1016.5 hPa 0.0 l/m 0.0 km/h (0 Bft) S 180 0.0 km/h (0 Bft)
26.06.2017 00:12 19.4 C 25.6 C 77 % 1016.4 hPa 0.0 l/m 1.4 km/h (1 Bft) S 180 3.2 km/h (1 Bft)
26.06.2017 00:00 19.3 C 25.6 C 79 % 1016.4 hPa 0.0 l/m 0.0 km/h (0 Bft) S 180 0.0 km/h (0 Bft)
25.06.2017 23:48 19.4 C 25.6 C 76 % 1016.4 hPa 0.0 l/m 2.9 km/h (1 Bft) S 180 4.8 km/h (1 Bft)
25.06.2017 23:36 19.7 C 25.6 C 75 % 1016.4 hPa 0.0 l/m 0.0 km/h (0 Bft) S 180 0.0 km/h (0 Bft)
25.06.2017 23:24 20.7 C 25.6 C 73 % 1016.4 hPa 0.0 l/m 4.3 km/h (1 Bft) S 180 6.4 km/h (2 Bft)
25.06.2017 23:12 20.9 C 25.6 C 71 % 1016.4 hPa 0.0 l/m 0.0 km/h (0 Bft) S 180 0.0 km/h (0 Bft)
25.06.2017 23:00 21.6 C 25.6 C 68 % 1016.3 hPa 0.0 l/m 0.0 km/h (0 Bft) S 180 0.0 km/h (0 Bft)
25.06.2017 22:48 22.2 C 25.6 C 65 % 1016.2 hPa 0.0 l/m 5.8 km/h (2 Bft) W-NW 292 9.7 km/h (2 Bft)
25.06.2017 22:36 22.3 C 25.6 C 64 % 1016.2 hPa 0.0 l/m 10.1 km/h (2 Bft) W-NW 292 12.9 km/h (3 Bft)
25.06.2017 22:00 22.5 C 25.6 C 64 % 1013.9 hPa 0.0 l/m 9.1 km/h (2 Bft) W-NW 291 15.9 km/h (3 Bft)
25.06.2017 21:00 23.6 C 26.1 C 60 % 1013.3 hPa 0.0 l/m 15.1 km/h (3 Bft) NW 316 18.8 km/h (3 Bft)
25.06.2017 20:00 24.3 C 26.1 C 63 % 1013.1 hPa 0.0 l/m 20.4 km/h (4 Bft) N-NW 328 26.1 km/h (4 Bft)
25.06.2017 19:00 24.8 C 26.1 C 55 % 1013.0 hPa 0.0 l/m 17.3 km/h (3 Bft) NW 308 21.7 km/h (4 Bft)
25.06.2017 18:00 24.8 C 26.1 C 58 % 1013.3 hPa 0.0 l/m 9.3 km/h (2 Bft) NW 314 15.9 km/h (3 Bft)
25.06.2017 17:00 23.6 C 26.1 C 65 % 1013.5 hPa 0.0 l/m 6.1 km/h (2 Bft) SW 220 10.1 km/h (2 Bft)
25.06.2017 16:00 23.2 C 26.1 C 67 % 1014.1 hPa 0.0 l/m 7.1 km/h (2 Bft) SW 232 15.9 km/h (3 Bft)
25.06.2017 15:00 22.7 C 25.6 C 68 % 1014.6 hPa 0.0 l/m 12.7 km/h (3 Bft) S 185 26.1 km/h (4 Bft)
25.06.2017 14:00 21.2 C 25.6 C 75 % 1015.1 hPa 0.0 l/m 8.2 km/h (2 Bft) S 175 15.9 km/h (3 Bft)
_ Min-Zeit 05:55 02:56 19:20 13:50 - 22:56 - - 22:56
Minimum _ 15.5 C 25.0 C 54 % 1009.7 hPa - 0.0 km/h (0 Bft) - - 0.0 km/h (0 Bft)
_ Max-Zeit 13:45 15:15 05:45 00:36 14:00 20:30 - - 15:05
Maximum _ 26.2 C 26.1 C 93 % 1016.6 hPa 0.0 l/m 25.0 km/h
N-NW (4 Bft)
- - 29.0 km/h
S-SW (5 Bft)
Durchschnitt _ 21.1 C 25.5 C 73 % 1014.1 hPa #0.0 l/m 5.7 km/h (2 Bft) S-SO - 9.3 km/h (2 Bft)